createdAt,value
2023-10-23T00:00:45.897Z,16.00
2023-10-23T00:03:14.926Z,15.90
2023-10-23T00:05:44.100Z,15.90
2023-10-23T00:08:12.985Z,15.90
2023-10-23T00:10:44.162Z,15.90
2023-10-23T00:13:16.445Z,15.90
2023-10-23T00:15:45.474Z,15.80
2023-10-23T00:18:14.196Z,15.70
2023-10-23T00:20:43.140Z,15.80
2023-10-23T00:23:12.132Z,15.80
2023-10-23T00:25:41.302Z,15.70
2023-10-23T00:28:10.220Z,15.80
2023-10-23T00:30:41.067Z,15.90
2023-10-23T00:33:10.226Z,15.90
2023-10-23T00:35:39.165Z,15.90
2023-10-23T00:38:08.856Z,16.00
2023-10-23T00:40:37.643Z,16.00
2023-10-23T00:43:20.133Z,16.00
2023-10-23T00:45:55.969Z,16.00
2023-10-23T00:48:27.580Z,16.00
2023-10-23T00:51:00.083Z,16.00
2023-10-23T00:53:34.945Z,16.00
2023-10-23T00:56:07.020Z,16.00
2023-10-23T00:58:42.008Z,16.00
2023-10-23T01:01:14.503Z,16.00
2023-10-23T01:03:45.429Z,16.10
2023-10-23T01:06:15.564Z,16.00
2023-10-23T01:08:45.656Z,16.10
2023-10-23T01:11:16.719Z,16.10
2023-10-23T01:13:45.657Z,16.10
2023-10-23T01:16:15.903Z,16.20
2023-10-23T01:18:45.080Z,16.20
2023-10-23T01:21:14.076Z,16.30
2023-10-23T01:23:45.984Z,16.30
2023-10-23T01:26:16.338Z,16.30
2023-10-23T01:28:45.079Z,16.40
2023-10-23T01:31:13.826Z,16.40
2023-10-23T01:33:43.952Z,16.40
2023-10-23T01:36:12.946Z,16.40
2023-10-23T01:38:41.845Z,16.40
2023-10-23T01:41:10.543Z,16.40
2023-10-23T01:43:40.704Z,16.40
2023-10-23T01:46:09.471Z,16.30
2023-10-23T01:48:38.606Z,16.30
2023-10-23T01:51:08.809Z,16.20
2023-10-23T01:53:38.183Z,16.20
2023-10-23T01:56:10.786Z,16.10
2023-10-23T01:58:41.870Z,16.10
2023-10-23T02:01:23.008Z,16.10
2023-10-23T02:03:52.430Z,16.10
2023-10-23T02:06:21.760Z,16.00
2023-10-23T02:08:50.612Z,16.00
2023-10-23T02:11:19.483Z,15.90
2023-10-23T02:13:49.996Z,15.90
2023-10-23T02:16:18.969Z,15.90
2023-10-23T02:18:48.950Z,15.80
2023-10-23T02:21:19.336Z,15.80
2023-10-23T02:23:56.309Z,15.70
2023-10-23T02:26:26.971Z,15.70
2023-10-23T02:28:58.410Z,15.70
2023-10-23T02:31:27.934Z,15.70
2023-10-23T02:33:56.954Z,15.60
2023-10-23T02:36:26.112Z,15.60
2023-10-23T02:38:54.987Z,15.50
2023-10-23T02:41:23.656Z,15.50
2023-10-23T02:43:52.604Z,15.50
2023-10-23T02:46:23.291Z,15.50
2023-10-23T02:48:52.201Z,15.50
2023-10-23T02:51:21.136Z,15.40
2023-10-23T02:53:50.613Z,15.40
2023-10-23T02:56:19.414Z,15.30
2023-10-23T02:58:48.081Z,15.30
2023-10-23T03:01:19.286Z,15.20
2023-10-23T03:03:50.256Z,15.20
2023-10-23T03:06:19.568Z,15.20
2023-10-23T03:08:48.931Z,15.10
2023-10-23T03:11:18.018Z,15.10
2023-10-23T03:13:47.365Z,15.10
2023-10-23T03:16:17.177Z,15.10
2023-10-23T03:18:46.341Z,15.00
2023-10-23T03:21:16.847Z,15.00
2023-10-23T03:23:46.052Z,15.00
2023-10-23T03:26:15.853Z,15.00
2023-10-23T03:28:44.853Z,14.90
2023-10-23T03:31:13.719Z,15.00
2023-10-23T03:33:42.903Z,15.00
2023-10-23T03:36:11.736Z,14.90
2023-10-23T03:38:42.206Z,14.90
2023-10-23T03:41:11.012Z,14.80
2023-10-23T03:43:40.787Z,14.80
2023-10-23T03:46:09.832Z,14.80
2023-10-23T03:48:38.634Z,14.80
2023-10-23T03:51:07.539Z,14.80
2023-10-23T03:53:36.404Z,14.80
2023-10-23T03:56:09.077Z,14.80
2023-10-23T03:58:37.749Z,14.70
2023-10-23T04:01:07.062Z,14.70
2023-10-23T04:03:36.187Z,14.80
2023-10-23T04:06:07.163Z,14.80
2023-10-23T04:08:36.374Z,14.90
2023-10-23T04:11:05.316Z,14.90
2023-10-23T04:13:37.283Z,14.80
2023-10-23T04:16:06.816Z,14.80
2023-10-23T04:18:35.820Z,14.80
2023-10-23T04:21:06.632Z,14.70
2023-10-23T04:23:36.468Z,14.80
2023-10-23T04:26:05.515Z,14.70
2023-10-23T04:28:38.127Z,14.70
2023-10-23T04:31:07.139Z,14.80
2023-10-23T04:33:36.416Z,14.70
2023-10-23T04:36:05.933Z,14.70
2023-10-23T04:38:34.616Z,14.70
2023-10-23T04:41:03.453Z,14.70
2023-10-23T04:43:32.410Z,14.70
2023-10-23T04:46:02.879Z,14.70
2023-10-23T04:48:32.289Z,14.70
2023-10-23T04:51:02.434Z,14.70
2023-10-23T04:53:31.688Z,14.80
2023-10-23T04:56:01.211Z,14.80
2023-10-23T04:58:30.966Z,14.80
2023-10-23T05:01:01.806Z,14.80
2023-10-23T05:03:31.351Z,14.80
2023-10-23T05:06:00.214Z,14.80
2023-10-23T05:08:29.209Z,14.80
2023-10-23T05:11:07.955Z,14.90
2023-10-23T05:13:36.700Z,14.90
2023-10-23T05:16:08.677Z,15.00
2023-10-23T05:18:37.649Z,15.00
2023-10-23T05:21:11.153Z,15.00
2023-10-23T05:23:39.945Z,15.00
2023-10-23T05:26:09.431Z,15.10
2023-10-23T05:28:40.489Z,15.10
2023-10-23T05:31:11.123Z,15.10
2023-10-23T05:33:40.679Z,15.10
2023-10-23T05:36:11.158Z,15.20
2023-10-23T05:38:41.134Z,15.20
2023-10-23T05:41:10.974Z,15.20
2023-10-23T05:43:39.740Z,15.20
2023-10-23T05:46:10.851Z,15.20
2023-10-23T05:48:39.697Z,15.30
2023-10-23T05:51:08.911Z,15.30
2023-10-23T05:53:37.689Z,15.30
2023-10-23T05:56:08.164Z,15.30
2023-10-23T05:58:37.708Z,15.20
2023-10-23T06:01:07.447Z,15.20
2023-10-23T06:03:38.938Z,15.20
2023-10-23T06:06:08.748Z,15.20
2023-10-23T06:08:38.089Z,15.30
2023-10-23T06:11:10.743Z,15.30
2023-10-23T06:13:39.730Z,15.30
2023-10-23T06:16:09.706Z,15.30
2023-10-23T06:18:41.740Z,15.30
2023-10-23T06:21:10.976Z,15.30
2023-10-23T06:23:42.103Z,15.40
2023-10-23T06:26:12.000Z,15.40
2023-10-23T06:28:41.016Z,15.40
2023-10-23T06:31:11.341Z,15.50
2023-10-23T06:33:44.083Z,15.50
2023-10-23T06:36:13.340Z,15.60
2023-10-23T06:38:42.366Z,15.70
2023-10-23T06:41:11.088Z,15.70
2023-10-23T06:43:39.763Z,15.80
2023-10-23T06:46:08.741Z,15.90
2023-10-23T06:48:38.350Z,16.00
2023-10-23T06:51:09.121Z,16.10
2023-10-23T06:53:38.052Z,16.20
2023-10-23T06:56:07.257Z,16.20
2023-10-23T06:58:36.375Z,16.30
2023-10-23T07:01:10.098Z,16.30
2023-10-23T07:03:39.134Z,16.40
2023-10-23T07:06:10.321Z,16.50
2023-10-23T07:08:40.961Z,16.60
2023-10-23T07:11:19.520Z,16.70
2023-10-23T07:13:49.306Z,16.80
2023-10-23T07:16:19.088Z,16.80
2023-10-23T07:18:48.355Z,16.90
2023-10-23T07:21:20.209Z,17.00
2023-10-23T07:23:49.033Z,17.10
2023-10-23T07:26:18.070Z,17.10
2023-10-23T07:28:47.388Z,17.20
2023-10-23T07:31:17.358Z,17.30
2023-10-23T07:33:47.411Z,17.40
2023-10-23T07:36:19.512Z,17.50
2023-10-23T07:38:48.420Z,17.60
2023-10-23T07:41:17.608Z,17.60
2023-10-23T07:43:46.523Z,17.70
2023-10-23T07:46:17.887Z,17.80
2023-10-23T07:48:47.796Z,17.80
2023-10-23T07:51:18.308Z,18.00
2023-10-23T07:53:47.231Z,18.00
2023-10-23T07:56:16.631Z,18.00
2023-10-23T07:58:45.769Z,18.10
2023-10-23T08:01:16.133Z,18.20
2023-10-23T08:03:45.243Z,18.30
2023-10-23T08:06:14.316Z,18.40
2023-10-23T08:08:46.214Z,18.50
2023-10-23T08:11:15.353Z,18.60
2023-10-23T08:13:44.263Z,18.80
2023-10-23T08:16:13.486Z,19.10
2023-10-23T08:18:44.064Z,19.40
2023-10-23T08:21:14.863Z,19.60
2023-10-23T08:23:54.321Z,19.80
2023-10-23T08:26:23.705Z,20.00
2023-10-23T08:29:02.472Z,20.10
2023-10-23T08:34:04.232Z,20.30
2023-10-23T08:36:34.362Z,20.70
2023-10-23T08:39:05.819Z,21.10
2023-10-23T08:41:37.147Z,21.50
2023-10-23T08:44:08.342Z,21.80
2023-10-23T08:46:39.682Z,22.10
2023-10-23T08:49:09.584Z,22.30
2023-10-23T08:51:43.413Z,22.40
2023-10-23T08:54:19.820Z,22.50
2023-10-23T08:56:59.369Z,22.60
2023-10-23T08:59:29.123Z,22.90
2023-10-23T09:02:01.992Z,23.20
2023-10-23T09:04:31.585Z,23.50
2023-10-23T09:07:02.043Z,23.70
2023-10-23T09:09:33.254Z,23.80
2023-10-23T09:12:05.010Z,23.90
2023-10-23T09:14:34.311Z,24.10
2023-10-23T09:17:05.217Z,24.20
2023-10-23T09:19:38.631Z,24.40
2023-10-23T09:22:09.481Z,24.80
2023-10-23T09:24:40.579Z,25.10
2023-10-23T09:27:09.677Z,25.10
2023-10-23T09:29:39.050Z,25.00
2023-10-23T09:32:08.943Z,24.80
2023-10-23T09:34:43.990Z,24.70
2023-10-23T09:37:13.431Z,24.30
2023-10-23T09:39:43.794Z,23.90
2023-10-23T09:42:13.262Z,23.80
2023-10-23T09:44:45.537Z,23.70
2023-10-23T09:47:15.099Z,23.70
2023-10-23T09:49:44.470Z,23.70
2023-10-23T09:52:15.673Z,23.70
2023-10-23T09:54:54.077Z,23.70
2023-10-23T09:57:35.939Z,23.70
2023-10-23T10:00:14.570Z,23.60
2023-10-23T10:02:48.584Z,23.50
2023-10-23T10:05:28.572Z,23.50
2023-10-23T10:08:05.041Z,23.60
2023-10-23T10:10:38.193Z,23.80
2023-10-23T10:13:07.975Z,24.00
2023-10-23T10:15:39.299Z,24.20
2023-10-23T10:18:08.243Z,24.40
2023-10-23T10:20:39.295Z,24.60
2023-10-23T10:23:13.429Z,24.80
2023-10-23T10:25:48.022Z,24.90
2023-10-23T10:28:17.262Z,24.80
2023-10-23T10:30:48.596Z,24.80
2023-10-23T10:34:27.509Z,25.00
2023-10-23T10:36:13.941Z,25.10
2023-10-23T10:38:44.835Z,25.30
2023-10-23T10:41:20.001Z,25.50
2023-10-23T10:43:55.531Z,25.70
2023-10-23T10:46:27.308Z,25.70
2023-10-23T10:48:58.995Z,25.80
2023-10-23T10:51:30.656Z,25.90
2023-10-23T10:54:03.737Z,25.90
2023-10-23T10:56:34.545Z,25.70
2023-10-23T10:59:04.758Z,25.50
2023-10-23T11:01:34.959Z,25.30
2023-10-23T11:04:04.594Z,25.00
2023-10-23T11:06:33.574Z,24.90
2023-10-23T11:09:02.519Z,24.70
2023-10-23T11:11:31.392Z,24.50
2023-10-23T11:14:04.870Z,24.30
2023-10-23T11:16:34.519Z,24.00
2023-10-23T11:19:04.384Z,23.90
2023-10-23T11:21:34.371Z,23.90
2023-10-23T11:24:04.219Z,23.80
2023-10-23T11:26:33.021Z,23.80
2023-10-23T11:29:04.921Z,23.70
2023-10-23T11:31:34.076Z,23.60
2023-10-23T11:34:12.404Z,23.60
2023-10-23T11:36:41.903Z,23.60
2023-10-23T11:39:11.888Z,23.70
2023-10-23T11:41:40.854Z,23.70
2023-10-23T11:44:11.893Z,23.70
2023-10-23T11:46:41.845Z,23.60
2023-10-23T11:49:10.991Z,23.50
2023-10-23T11:51:40.197Z,23.40
2023-10-23T11:54:09.538Z,23.40
2023-10-23T11:56:39.140Z,23.40
2023-10-23T11:59:08.283Z,23.30
2023-10-23T12:01:38.874Z,23.50
2023-10-23T12:04:08.174Z,23.60
2023-10-23T12:06:37.847Z,23.60
2023-10-23T12:09:08.138Z,23.60
2023-10-23T12:11:37.765Z,23.50
2023-10-23T12:14:07.153Z,23.50
2023-10-23T12:16:37.882Z,23.60
2023-10-23T12:19:07.434Z,23.90
2023-10-23T12:21:36.465Z,24.10
2023-10-23T12:24:06.772Z,24.20
2023-10-23T12:26:36.139Z,24.40
2023-10-23T12:29:08.689Z,24.40
2023-10-23T12:32:01.441Z,24.50
2023-10-23T12:34:28.494Z,24.60
2023-10-23T12:36:57.810Z,24.80
2023-10-23T12:39:27.813Z,24.90
2023-10-23T12:41:56.777Z,25.00
2023-10-23T12:44:26.882Z,25.00
2023-10-23T12:46:57.666Z,25.00
2023-10-23T12:49:28.417Z,25.10
2023-10-23T12:51:57.360Z,25.10
2023-10-23T12:54:26.609Z,25.00
2023-10-23T12:56:56.958Z,24.90
2023-10-23T12:59:26.019Z,24.80
2023-10-23T13:01:57.165Z,24.70
2023-10-23T13:04:26.238Z,24.50
2023-10-23T13:06:56.060Z,24.50
2023-10-23T13:09:25.273Z,24.50
2023-10-23T13:11:54.516Z,24.60
2023-10-23T13:14:23.581Z,24.50
2023-10-23T13:16:52.871Z,24.40
2023-10-23T13:19:23.326Z,24.40
2023-10-23T13:21:52.286Z,24.30
2023-10-23T13:24:21.594Z,24.20
2023-10-23T13:26:50.570Z,24.20
2023-10-23T13:29:19.500Z,24.10
2023-10-23T13:31:50.318Z,24.00
2023-10-23T13:34:19.900Z,23.90
2023-10-23T13:36:51.664Z,23.80
2023-10-23T13:39:20.529Z,23.70
2023-10-23T13:41:49.725Z,23.70
2023-10-23T13:44:18.572Z,23.60
2023-10-23T13:46:47.549Z,23.50
2023-10-23T13:49:18.210Z,23.50
2023-10-23T13:51:47.267Z,23.40
2023-10-23T13:54:17.999Z,23.30
2023-10-23T13:56:48.469Z,23.30
2023-10-23T13:59:17.551Z,23.20
2023-10-23T14:01:46.781Z,23.10
2023-10-23T14:04:15.604Z,23.00
2023-10-23T14:06:44.746Z,23.00
2023-10-23T14:09:41.458Z,22.90
2023-10-23T14:12:05.153Z,22.90
2023-10-23T14:14:34.012Z,22.80
2023-10-23T14:17:02.939Z,22.70
2023-10-23T14:19:45.639Z,22.70
2023-10-23T14:22:17.226Z,22.60
2023-10-23T14:24:46.233Z,22.60
2023-10-23T14:27:16.769Z,22.50
2023-10-23T14:29:45.747Z,22.50
2023-10-23T14:32:14.687Z,22.40
2023-10-23T14:34:43.691Z,22.30
2023-10-23T14:37:12.635Z,22.30
2023-10-23T14:39:41.750Z,22.30
2023-10-23T14:42:10.584Z,22.30
2023-10-23T14:44:41.076Z,22.30
2023-10-23T14:47:10.216Z,22.30
2023-10-23T14:49:39.678Z,22.20
2023-10-23T14:52:08.840Z,22.20
2023-10-23T14:54:38.355Z,22.10
2023-10-23T14:57:07.634Z,22.00
2023-10-23T14:59:36.510Z,22.00
2023-10-23T15:02:07.085Z,21.90
2023-10-23T15:04:37.367Z,21.80
2023-10-23T15:07:07.326Z,21.70
2023-10-23T15:09:36.582Z,21.60
2023-10-23T15:12:06.362Z,21.50
2023-10-23T15:14:35.266Z,21.40
2023-10-23T15:17:06.063Z,21.20
2023-10-23T15:19:36.032Z,21.20
2023-10-23T15:22:05.215Z,21.10
2023-10-23T15:24:34.100Z,21.00
2023-10-23T15:27:03.038Z,21.00
2023-10-23T15:29:31.933Z,20.90
2023-10-23T15:32:00.914Z,20.80
2023-10-23T15:34:33.183Z,20.70
2023-10-23T15:37:02.113Z,20.60
2023-10-23T15:39:31.849Z,20.60
2023-10-23T15:42:02.670Z,20.50
2023-10-23T15:44:36.408Z,20.50
2023-10-23T15:47:05.126Z,20.40
2023-10-23T15:49:35.769Z,20.30
2023-10-23T15:52:06.066Z,20.30
2023-10-23T15:54:35.403Z,20.30
2023-10-23T15:57:05.021Z,20.20
2023-10-23T15:59:33.989Z,20.10
2023-10-23T16:02:02.811Z,19.90
2023-10-23T16:04:32.418Z,19.80
2023-10-23T16:07:02.786Z,19.60
2023-10-23T16:09:31.524Z,19.50
2023-10-23T16:12:10.214Z,19.50
2023-10-23T16:17:12.474Z,19.30
2023-10-23T16:19:57.070Z,19.30
2023-10-23T16:22:28.046Z,19.30
2023-10-23T16:24:56.772Z,19.20
2023-10-23T16:27:25.814Z,19.20
2023-10-23T16:29:56.197Z,19.10
2023-10-23T16:32:25.209Z,19.10
2023-10-23T16:34:54.262Z,19.10
2023-10-23T16:37:23.029Z,19.10
2023-10-23T16:39:53.493Z,19.10
2023-10-23T16:42:22.427Z,19.00
2023-10-23T16:44:56.236Z,19.00
2023-10-23T16:47:26.320Z,18.90
2023-10-23T16:49:55.191Z,18.80
2023-10-23T16:52:24.096Z,18.80
2023-10-23T16:54:54.569Z,18.70
2023-10-23T16:57:23.250Z,18.60
2023-10-23T16:59:52.038Z,18.50
2023-10-23T17:02:21.148Z,18.50
2023-10-23T17:04:50.977Z,18.40
2023-10-23T17:07:20.094Z,18.30
2023-10-23T17:09:49.390Z,18.20
2023-10-23T17:12:19.757Z,18.20
2023-10-23T17:14:48.649Z,18.10
2023-10-23T17:17:17.469Z,18.10
2023-10-23T17:19:48.729Z,18.00
2023-10-23T17:22:18.089Z,18.00
2023-10-23T17:24:46.916Z,18.00
2023-10-23T17:27:15.966Z,17.90
2023-10-23T17:29:49.042Z,17.90
2023-10-23T17:32:18.085Z,17.80
2023-10-23T17:34:47.134Z,17.80
2023-10-23T17:37:15.974Z,17.80
2023-10-23T17:39:45.257Z,17.80
2023-10-23T17:42:14.362Z,17.80
2023-10-23T17:44:43.356Z,17.80
2023-10-23T17:47:14.427Z,17.80
2023-10-23T17:49:43.654Z,17.80
2023-10-23T17:52:13.074Z,17.80
2023-10-23T17:54:45.841Z,17.80
2023-10-23T17:57:17.140Z,17.80
2023-10-23T17:59:46.200Z,17.90
2023-10-23T18:02:16.637Z,17.90
2023-10-23T18:04:49.529Z,17.90
2023-10-23T18:07:19.953Z,17.90
2023-10-23T18:09:50.541Z,18.00
2023-10-23T18:12:35.153Z,18.00
2023-10-23T18:15:08.652Z,18.00
2023-10-23T18:17:39.439Z,18.00
2023-10-23T18:20:10.453Z,18.00
2023-10-23T18:22:39.509Z,17.90
2023-10-23T18:25:10.331Z,17.90
2023-10-23T18:27:39.804Z,17.80
2023-10-23T18:30:10.804Z,17.80
2023-10-23T18:32:42.448Z,17.80
2023-10-23T18:35:12.238Z,17.80
2023-10-23T18:37:41.324Z,17.90
2023-10-23T18:40:11.753Z,17.90
2023-10-23T18:42:40.763Z,17.90
2023-10-23T18:45:11.534Z,17.90
2023-10-23T18:47:41.797Z,17.90
2023-10-23T18:50:12.067Z,17.90
2023-10-23T18:52:41.013Z,18.00
2023-10-23T18:58:02.808Z,17.90
2023-10-23T19:00:32.881Z,17.90
2023-10-23T19:03:03.744Z,17.90
2023-10-23T19:05:36.996Z,17.90
2023-10-23T19:08:06.876Z,17.80
2023-10-23T19:10:35.613Z,17.80
2023-10-23T19:13:04.506Z,17.70
2023-10-23T19:15:33.171Z,17.70
2023-10-23T19:18:03.858Z,17.60
2023-10-23T19:20:32.757Z,17.50
2023-10-23T19:23:01.677Z,17.40
2023-10-23T19:25:30.677Z,17.30
2023-10-23T19:27:59.489Z,17.20
2023-10-23T19:30:28.512Z,17.10
2023-10-23T19:32:59.905Z,17.10
2023-10-23T19:35:32.242Z,17.10
2023-10-23T19:38:01.870Z,17.10
2023-10-23T19:40:31.252Z,17.10
2023-10-23T19:43:12.235Z,16.90
2023-10-23T19:45:41.596Z,16.80
2023-10-23T19:48:13.665Z,16.70
2023-10-23T19:50:48.923Z,16.70
2023-10-23T19:53:18.752Z,16.60
2023-10-23T19:55:51.696Z,16.50
2023-10-23T19:58:22.419Z,16.40
2023-10-23T20:00:51.501Z,16.30
2023-10-23T20:03:20.525Z,16.20
2023-10-23T20:05:54.121Z,16.10
2023-10-23T20:08:23.522Z,16.10
2023-10-23T20:10:52.506Z,16.00
2023-10-23T20:13:21.623Z,15.90
2023-10-23T20:15:52.120Z,15.90
2023-10-23T20:18:21.141Z,15.80
2023-10-23T20:20:57.640Z,15.70
2023-10-23T20:23:26.593Z,15.60
2023-10-23T20:25:55.452Z,15.50
2023-10-23T20:28:24.433Z,15.40
2023-10-23T20:30:54.041Z,15.30
2023-10-23T20:33:22.941Z,15.20
2023-10-23T20:35:51.665Z,15.20
2023-10-23T20:38:22.064Z,15.10
2023-10-23T20:40:52.144Z,15.10
2023-10-23T20:43:20.916Z,15.00
2023-10-23T20:45:49.605Z,15.00
2023-10-23T20:48:18.352Z,15.10
2023-10-23T20:50:46.919Z,15.10
2023-10-23T20:53:15.978Z,15.10
2023-10-23T20:55:46.604Z,15.10
2023-10-23T20:58:15.282Z,15.00
2023-10-23T21:00:44.227Z,14.90
2023-10-23T21:03:14.197Z,14.80
2023-10-23T21:05:43.339Z,14.80
2023-10-23T21:08:12.144Z,14.80
2023-10-23T21:10:41.242Z,14.80
2023-10-23T21:13:11.740Z,14.80
2023-10-23T21:15:41.012Z,14.90
2023-10-23T21:18:10.208Z,14.70
2023-10-23T21:20:39.218Z,14.70
2023-10-23T21:23:08.367Z,14.60
2023-10-23T21:25:36.146Z,14.60
2023-10-23T21:28:05.852Z,14.50
2023-10-23T21:30:35.990Z,14.50
2023-10-23T21:33:05.279Z,14.50
2023-10-23T21:35:34.318Z,14.50
2023-10-23T21:38:05.223Z,14.50
2023-10-23T21:40:34.408Z,14.40
2023-10-23T21:43:05.041Z,14.40
2023-10-23T21:45:35.636Z,14.30
2023-10-23T21:48:04.495Z,14.30
2023-10-23T21:50:33.620Z,14.30
2023-10-23T21:53:03.799Z,14.20
2023-10-23T21:55:33.657Z,14.10
2023-10-23T21:58:05.356Z,14.10
2023-10-23T22:00:38.018Z,14.20
2023-10-23T22:03:07.794Z,14.20
2023-10-23T22:05:37.525Z,14.20
2023-10-23T22:08:07.326Z,14.20
2023-10-23T22:10:37.364Z,14.20
2023-10-23T22:13:06.835Z,14.10
2023-10-23T22:15:37.021Z,14.00
2023-10-23T22:18:05.910Z,14.00
2023-10-23T22:20:34.979Z,14.00
2023-10-23T22:23:04.384Z,14.00
2023-10-23T22:25:33.226Z,13.90
2023-10-23T22:28:01.992Z,13.90
2023-10-23T22:30:31.242Z,13.90
2023-10-23T22:33:14.563Z,13.90
2023-10-23T22:35:43.918Z,13.80
2023-10-23T22:38:15.187Z,13.80
2023-10-23T22:40:45.203Z,13.80
2023-10-23T22:43:14.344Z,13.80
2023-10-23T22:45:55.301Z,13.80
2023-10-23T22:48:34.872Z,13.80
2023-10-23T22:51:04.898Z,13.80
2023-10-23T22:53:36.962Z,13.70
2023-10-23T22:56:09.629Z,13.70
2023-10-23T22:58:43.288Z,13.70
2023-10-23T23:01:12.737Z,13.60
2023-10-23T23:03:44.585Z,13.50
2023-10-23T23:06:14.456Z,13.50
2023-10-23T23:08:45.417Z,13.50
2023-10-23T23:11:14.805Z,13.40
2023-10-23T23:13:44.496Z,13.40
2023-10-23T23:16:13.550Z,13.40
2023-10-23T23:18:48.768Z,13.40
2023-10-23T23:21:19.142Z,13.30
2023-10-23T23:23:48.008Z,13.30
2023-10-23T23:26:16.731Z,13.30
2023-10-23T23:28:45.681Z,13.30
2023-10-23T23:31:14.936Z,13.30
2023-10-23T23:33:45.941Z,13.20
2023-10-23T23:36:14.818Z,13.10
2023-10-23T23:38:43.952Z,13.10
2023-10-23T23:41:12.703Z,13.00
2023-10-23T23:43:41.899Z,12.90
2023-10-23T23:46:11.033Z,12.90
2023-10-23T23:48:40.081Z,12.90
2023-10-23T23:51:10.768Z,12.80
2023-10-23T23:53:39.533Z,12.70
2023-10-23T23:56:08.835Z,12.50
2023-10-23T23:58:37.690Z,12.50
